Main page
METAR-TAF:

METAR-TAF

Airports :

Yap, Yap Island, Micronesia

Yap International Airport

latitude: 09-29N, longitude: 138-05E, elevation: 28 m

Current weather observation

The report was made 45 minutes ago, at 07:51 UTC
Wind 5 kt from variable directions
Temperature 29°C
Humidity 84%
Pressure 1008 hPa
Visibility: 19.3 km
Few clouds at a height of 1600 ft, Towering cumulus.
Few clouds at a height of 13000 ft
Scattered clouds at a height of 30000 ft
showers in vicinity

METAR: PTYA 280751Z VRB05KT 12SM VCSH FEW016TCU FEW130 SCT300 29/26 A2977 RMK VCSH S TCU S SLP083 T02880258

Time: 18:36 (08:36 UTC)

Forecast

The report was made 3 hours and 16 minutes ago, at 05:20 UTC
Forecast valid from 28 at 06 UTC to 29 at 06 UTC
Wind 9 kt from the East/Southeast
Visibility: 10 km
Scattered clouds at a height of 1600 ft
Scattered clouds at a height of 13000 ft
Broken clouds at a height of 30000 ft
showers in vicinity

TAF: PTYA 280520Z 2806/2906 11009KT P6SM VCSH SCT016 SCT130 BKN300

Weather observations and forecasts of more than 4000 airports (METAR and TAF reports).

The available stations are represented by yellow and red dots on the map.

Hover mouse over dot to see the name of the station.

Then click to see weather observations and forecasts.

To change the map : click on the green buttons with a black cross to zoom in, on the green button with a dash to zoom out, or on the green arrows for adjacent maps.


METAR-TAF: